EWG9815 LOWW-BKPR
Flight info
| Callsign | EWG9815 |
|---|---|
| Flight time | 1h 14m |
| Altitude | 39000 |
| Route | ARSIN1C/29 ARSIN DCT NALOX DCT OSDUK DCT SIVLA DCT OSLUD DCT AKIKA DCT RINAV DCT ARBER ARBER1D |
| Aircraft | A320/M-SDE3FGHIRWY/LB1 |
Departure
| Time | 2026-04-25 17:35 |
|---|---|
| Airport | Vienna International Airport (LOWW) |
Arrival
| Time | 2026-04-25 18:49 |
|---|---|
| Airport | Priština Adem Jashari International Airport (BKPR) |
| Time | Latitude | Longitude | Altitude | Speed | Heading |
|---|---|---|---|---|---|
| 2026-04-25 17:11 | 48.12132 | 16.55180 | 610 ft | 0 kts | 296° |
| 2026-04-25 17:25 | 48.12125 | 16.55202 | 625 ft | 4 kts | 296° |
| 2026-04-25 17:25 | 48.12116 | 16.55230 | 625 ft | 4 kts | 282° |
| 2026-04-25 17:25 | 48.12119 | 16.55260 | 625 ft | 4 kts | 216° |
| 2026-04-25 17:26 | 48.12141 | 16.55278 | 622 ft | 4 kts | 206° |
| 2026-04-25 17:26 | 48.12149 | 16.55285 | 621 ft | 0 kts | 206° |
| 2026-04-25 17:28 | 48.12146 | 16.55282 | 621 ft | 4 kts | 206° |
| 2026-04-25 17:29 | 48.12081 | 16.55235 | 615 ft | 13 kts | 206° |
| 2026-04-25 17:29 | 48.11997 | 16.55177 | 609 ft | 13 kts | 197° |
| 2026-04-25 17:29 | 48.11917 | 16.55185 | 616 ft | 11 kts | 195° |
| 2026-04-25 17:29 | 48.11870 | 16.55246 | 619 ft | 9 kts | 116° |
| 2026-04-25 17:30 | 48.11844 | 16.55325 | 619 ft | 9 kts | 116° |
| 2026-04-25 17:30 | 48.11804 | 16.55448 | 609 ft | 14 kts | 116° |
| 2026-04-25 17:30 | 48.11762 | 16.55577 | 609 ft | 13 kts | 116° |
| 2026-04-25 17:30 | 48.11723 | 16.55697 | 618 ft | 12 kts | 116° |
| 2026-04-25 17:31 | 48.11688 | 16.55806 | 620 ft | 11 kts | 116° |
| 2026-04-25 17:31 | 48.11656 | 16.55904 | 621 ft | 10 kts | 116° |
| 2026-04-25 17:31 | 48.11605 | 16.56061 | 608 ft | 23 kts | 116° |
| 2026-04-25 17:31 | 48.11550 | 16.56231 | 613 ft | 16 kts | 116° |
| 2026-04-25 17:32 | 48.11504 | 16.56372 | 608 ft | 15 kts | 116° |
| 2026-04-25 17:32 | 48.11461 | 16.56502 | 610 ft | 13 kts | 116° |
| 2026-04-25 17:32 | 48.11421 | 16.56623 | 612 ft | 12 kts | 116° |
| 2026-04-25 17:32 | 48.11385 | 16.56735 | 620 ft | 12 kts | 116° |
| 2026-04-25 17:33 | 48.11341 | 16.56871 | 614 ft | 17 kts | 116° |
| 2026-04-25 17:33 | 48.11285 | 16.57044 | 608 ft | 18 kts | 117° |
| 2026-04-25 17:33 | 48.11235 | 16.57195 | 617 ft | 15 kts | 116° |
| 2026-04-25 17:33 | 48.11156 | 16.57216 | 614 ft | 13 kts | 208° |
| 2026-04-25 17:34 | 48.11069 | 16.57147 | 619 ft | 15 kts | 220° |
| 2026-04-25 17:34 | 48.11085 | 16.57010 | 618 ft | 15 kts | 296° |
| 2026-04-25 17:34 | 48.11168 | 16.56754 | 614 ft | 57 kts | 295° |
| 2026-04-25 17:34 | 48.11444 | 16.55903 | 616 ft | 122 kts | 296° |
| 2026-04-25 17:35 | 48.11890 | 16.54523 | 631 ft | 169 kts | 295° |
| 2026-04-25 17:35 | 48.12248 | 16.52853 | 1241 ft | 168 kts | 265° |
| 2026-04-25 17:35 | 48.11709 | 16.51330 | 2010 ft | 175 kts | 225° |
| 2026-04-25 17:35 | 48.10706 | 16.50208 | 2635 ft | 189 kts | 221° |
| 2026-04-25 17:36 | 48.09581 | 16.49016 | 3012 ft | 212 kts | 220° |
| 2026-04-25 17:36 | 48.08288 | 16.47701 | 3395 ft | 239 kts | 211° |
| 2026-04-25 17:36 | 48.06570 | 16.47212 | 3862 ft | 269 kts | 178° |
| 2026-04-25 17:36 | 48.04667 | 16.47506 | 4601 ft | 281 kts | 174° |
| 2026-04-25 17:37 | 48.02758 | 16.48242 | 5110 ft | 288 kts | 159° |
| 2026-04-25 17:37 | 48.00906 | 16.49347 | 6128 ft | 287 kts | 160° |
| 2026-04-25 17:37 | 47.99043 | 16.50449 | 7064 ft | 290 kts | 160° |
| 2026-04-25 17:37 | 47.97149 | 16.51565 | 7966 ft | 294 kts | 161° |
| 2026-04-25 17:38 | 47.95242 | 16.52690 | 8855 ft | 297 kts | 161° |
| 2026-04-25 17:38 | 47.93957 | 16.53449 | 9457 ft | 300 kts | 161° |
| 2026-04-25 17:38 | 47.91327 | 16.55003 | 10370 ft | 315 kts | 161° |
| 2026-04-25 17:38 | 47.89212 | 16.56242 | 10686 ft | 338 kts | 161° |
| 2026-04-25 17:39 | 47.86946 | 16.57567 | 10952 ft | 360 kts | 161° |
| 2026-04-25 17:39 | 47.84583 | 16.58960 | 11551 ft | 368 kts | 161° |
| 2026-04-25 17:39 | 47.82193 | 16.60380 | 12242 ft | 374 kts | 161° |
| 2026-04-25 17:39 | 47.79748 | 16.61832 | 12952 ft | 380 kts | 161° |
| 2026-04-25 17:40 | 47.77275 | 16.63298 | 13656 ft | 385 kts | 161° |
| 2026-04-25 17:40 | 47.74767 | 16.64783 | 14307 ft | 390 kts | 161° |
| 2026-04-25 17:40 | 47.72230 | 16.66279 | 14929 ft | 394 kts | 161° |
| 2026-04-25 17:40 | 47.69704 | 16.67777 | 15566 ft | 398 kts | 159° |
| 2026-04-25 17:41 | 47.67197 | 16.69614 | 16194 ft | 404 kts | 155° |
| 2026-04-25 17:41 | 47.64697 | 16.71562 | 16838 ft | 408 kts | 154° |
| 2026-04-25 17:41 | 47.62190 | 16.73565 | 17473 ft | 412 kts | 154° |
| 2026-04-25 17:41 | 47.59656 | 16.75605 | 18099 ft | 416 kts | 154° |
| 2026-04-25 17:42 | 47.57096 | 16.77661 | 18668 ft | 420 kts | 154° |
| 2026-04-25 17:42 | 47.54521 | 16.79715 | 19248 ft | 422 kts | 154° |
| 2026-04-25 17:42 | 47.51919 | 16.81777 | 19839 ft | 424 kts | 155° |
| 2026-04-25 17:42 | 47.49305 | 16.83839 | 20426 ft | 427 kts | 155° |
| 2026-04-25 17:43 | 47.46677 | 16.85907 | 20993 ft | 429 kts | 155° |
| 2026-04-25 17:43 | 47.44033 | 16.87981 | 21556 ft | 431 kts | 155° |
| 2026-04-25 17:43 | 47.41377 | 16.90059 | 22117 ft | 432 kts | 155° |
| 2026-04-25 17:43 | 47.38713 | 16.92141 | 22636 ft | 434 kts | 155° |
| 2026-04-25 17:44 | 47.36067 | 16.94213 | 23111 ft | 437 kts | 155° |
| 2026-04-25 17:44 | 47.33371 | 16.96323 | 23573 ft | 440 kts | 155° |
| 2026-04-25 17:44 | 47.30651 | 16.98448 | 23952 ft | 443 kts | 155° |
| 2026-04-25 17:44 | 47.27912 | 17.00587 | 24328 ft | 446 kts | 155° |
| 2026-04-25 17:45 | 47.25166 | 17.02737 | 24698 ft | 449 kts | 156° |
| 2026-04-25 17:45 | 47.24228 | 17.03471 | 24821 ft | 450 kts | 156° |
| 2026-04-25 17:45 | 47.19612 | 17.07069 | 25422 ft | 454 kts | 156° |
| 2026-04-25 17:45 | 47.16809 | 17.09242 | 25769 ft | 457 kts | 156° |
| 2026-04-25 17:46 | 47.13988 | 17.11423 | 26098 ft | 459 kts | 156° |
| 2026-04-25 17:46 | 47.11158 | 17.13613 | 26454 ft | 461 kts | 156° |
| 2026-04-25 17:46 | 47.08315 | 17.15816 | 26798 ft | 463 kts | 156° |
| 2026-04-25 17:46 | 47.05460 | 17.18029 | 27126 ft | 465 kts | 156° |
| 2026-04-25 17:47 | 47.02622 | 17.20224 | 27437 ft | 468 kts | 156° |
| 2026-04-25 17:47 | 46.99731 | 17.22452 | 27738 ft | 470 kts | 156° |
| 2026-04-25 17:47 | 46.96826 | 17.24686 | 28050 ft | 472 kts | 156° |
| 2026-04-25 17:47 | 46.93907 | 17.26932 | 28330 ft | 475 kts | 156° |
| 2026-04-25 17:48 | 46.88032 | 17.31445 | 28850 ft | 479 kts | 156° |
| 2026-04-25 17:48 | 46.85072 | 17.33717 | 29119 ft | 481 kts | 156° |
| 2026-04-25 17:48 | 46.82107 | 17.35986 | 29362 ft | 482 kts | 156° |
| 2026-04-25 17:49 | 46.79129 | 17.38258 | 29651 ft | 483 kts | 156° |
| 2026-04-25 17:49 | 46.76150 | 17.40528 | 29955 ft | 483 kts | 156° |
| 2026-04-25 17:49 | 46.73162 | 17.42804 | 30236 ft | 483 kts | 156° |
| 2026-04-25 17:49 | 46.70180 | 17.45076 | 30513 ft | 483 kts | 156° |
| 2026-04-25 17:50 | 46.67204 | 17.47342 | 30792 ft | 483 kts | 157° |
| 2026-04-25 17:50 | 46.64227 | 17.49605 | 31068 ft | 482 kts | 156° |
| 2026-04-25 17:50 | 46.61257 | 17.51860 | 31369 ft | 481 kts | 156° |
| 2026-04-25 17:50 | 46.58289 | 17.54109 | 31669 ft | 481 kts | 157° |
| 2026-04-25 17:51 | 46.55323 | 17.56351 | 31965 ft | 480 kts | 157° |
| 2026-04-25 17:51 | 46.52401 | 17.58560 | 32248 ft | 480 kts | 157° |
| 2026-04-25 17:51 | 46.49437 | 17.60800 | 32537 ft | 480 kts | 157° |
| 2026-04-25 17:51 | 46.46477 | 17.63036 | 32815 ft | 480 kts | 157° |
| 2026-04-25 17:52 | 46.43514 | 17.65271 | 33100 ft | 480 kts | 157° |
| 2026-04-25 17:52 | 46.37590 | 17.69725 | 33675 ft | 479 kts | 157° |
| 2026-04-25 17:52 | 46.34631 | 17.71941 | 33971 ft | 479 kts | 157° |
| 2026-04-25 17:53 | 46.31669 | 17.74153 | 34234 ft | 478 kts | 157° |
| 2026-04-25 17:53 | 46.28710 | 17.76367 | 34500 ft | 478 kts | 157° |
| 2026-04-25 17:53 | 46.25760 | 17.78574 | 34769 ft | 477 kts | 157° |
| 2026-04-25 17:53 | 46.22816 | 17.80776 | 35028 ft | 477 kts | 157° |
| 2026-04-25 17:54 | 46.19870 | 17.82976 | 35280 ft | 476 kts | 157° |
| 2026-04-25 17:54 | 46.16929 | 17.85170 | 35502 ft | 476 kts | 157° |
| 2026-04-25 17:54 | 46.13988 | 17.87362 | 35738 ft | 475 kts | 157° |
| 2026-04-25 17:54 | 46.11054 | 17.89542 | 35967 ft | 475 kts | 157° |
| 2026-04-25 17:55 | 46.08116 | 17.91719 | 36184 ft | 475 kts | 157° |
| 2026-04-25 17:55 | 46.05181 | 17.93891 | 36395 ft | 474 kts | 157° |
| 2026-04-25 17:55 | 46.02243 | 17.96062 | 36600 ft | 474 kts | 157° |
| 2026-04-25 17:55 | 45.99302 | 17.98232 | 36798 ft | 474 kts | 157° |
| 2026-04-25 17:56 | 45.96371 | 18.00395 | 37000 ft | 473 kts | 157° |
| 2026-04-25 17:56 | 45.93439 | 18.02558 | 37169 ft | 473 kts | 157° |
| 2026-04-25 17:56 | 45.90515 | 18.04714 | 37357 ft | 473 kts | 157° |
| 2026-04-25 17:56 | 45.87619 | 18.06844 | 37513 ft | 473 kts | 157° |
| 2026-04-25 17:57 | 45.84683 | 18.08999 | 37682 ft | 473 kts | 157° |
| 2026-04-25 17:57 | 45.81752 | 18.11148 | 37869 ft | 473 kts | 157° |
| 2026-04-25 17:57 | 45.78781 | 18.13131 | 37971 ft | 469 kts | 164° |
| 2026-04-25 17:58 | 45.72547 | 18.15652 | 37976 ft | 464 kts | 171° |
| 2026-04-25 17:58 | 45.66287 | 18.17922 | 37979 ft | 464 kts | 171° |
| 2026-04-25 17:59 | 45.61081 | 18.19816 | 37980 ft | 464 kts | 171° |
| 2026-04-25 17:59 | 45.54829 | 18.22090 | 37979 ft | 464 kts | 171° |
| 2026-04-25 18:00 | 45.48555 | 18.24359 | 37971 ft | 465 kts | 171° |
| 2026-04-25 18:00 | 45.42272 | 18.26643 | 37983 ft | 466 kts | 170° |
| 2026-04-25 18:01 | 45.35994 | 18.28908 | 37988 ft | 466 kts | 171° |
| 2026-04-25 18:01 | 45.29716 | 18.31176 | 37982 ft | 466 kts | 170° |
| 2026-04-25 18:02 | 45.23487 | 18.33414 | 37985 ft | 466 kts | 171° |
| 2026-04-25 18:02 | 45.17238 | 18.35647 | 37985 ft | 466 kts | 171° |
| 2026-04-25 18:03 | 45.10954 | 18.37894 | 37985 ft | 466 kts | 170° |
| 2026-04-25 18:03 | 45.04629 | 18.39833 | 37984 ft | 464 kts | 174° |
| 2026-04-25 18:04 | 44.98272 | 18.41354 | 37991 ft | 463 kts | 175° |
| 2026-04-25 18:04 | 44.91912 | 18.42843 | 37992 ft | 463 kts | 174° |
| 2026-04-25 18:05 | 44.85554 | 18.44436 | 37982 ft | 464 kts | 174° |
| 2026-04-25 18:05 | 44.79195 | 18.46069 | 37996 ft | 463 kts | 174° |
| 2026-04-25 18:06 | 44.72856 | 18.47690 | 37995 ft | 463 kts | 174° |
| 2026-04-25 18:06 | 44.66493 | 18.49309 | 37998 ft | 465 kts | 174° |
| 2026-04-25 18:07 | 44.60167 | 18.50905 | 38000 ft | 464 kts | 173° |
| 2026-04-25 18:07 | 44.53798 | 18.52510 | 38001 ft | 464 kts | 173° |
| 2026-04-25 18:08 | 44.47437 | 18.54102 | 38000 ft | 464 kts | 173° |
| 2026-04-25 18:08 | 44.41065 | 18.55691 | 38009 ft | 464 kts | 173° |
| 2026-04-25 18:09 | 44.34717 | 18.57286 | 38008 ft | 464 kts | 173° |
| 2026-04-25 18:09 | 44.28363 | 18.58883 | 38016 ft | 464 kts | 173° |
| 2026-04-25 18:10 | 44.22010 | 18.60473 | 38008 ft | 463 kts | 173° |
| 2026-04-25 18:10 | 44.15660 | 18.62040 | 38011 ft | 463 kts | 173° |
| 2026-04-25 18:11 | 44.09312 | 18.63609 | 38013 ft | 463 kts | 173° |
| 2026-04-25 18:11 | 44.02967 | 18.65183 | 38005 ft | 463 kts | 173° |
| 2026-04-25 18:12 | 43.96645 | 18.66748 | 38006 ft | 462 kts | 173° |
| 2026-04-25 18:12 | 43.90354 | 18.68301 | 38008 ft | 462 kts | 173° |
| 2026-04-25 18:13 | 43.84018 | 18.69866 | 38005 ft | 462 kts | 173° |
| 2026-04-25 18:13 | 43.77680 | 18.71417 | 38012 ft | 462 kts | 172° |
| 2026-04-25 18:14 | 43.68190 | 18.73740 | 38013 ft | 462 kts | 173° |
| 2026-04-25 18:14 | 43.61849 | 18.75285 | 38007 ft | 461 kts | 172° |
| 2026-04-25 18:15 | 43.55570 | 18.76807 | 38020 ft | 461 kts | 172° |
| 2026-04-25 18:15 | 43.49280 | 18.78540 | 38021 ft | 463 kts | 164° |
| 2026-04-25 18:16 | 43.43495 | 18.82440 | 38018 ft | 466 kts | 148° |
| 2026-04-25 18:17 | 43.35333 | 18.89654 | 38017 ft | 465 kts | 148° |
| 2026-04-25 18:17 | 43.29859 | 18.94421 | 38014 ft | 466 kts | 148° |
| 2026-04-25 18:18 | 43.24395 | 18.99202 | 38023 ft | 465 kts | 148° |
| 2026-04-25 18:18 | 43.18934 | 19.03972 | 38020 ft | 465 kts | 148° |
| 2026-04-25 18:19 | 43.13456 | 19.08742 | 38021 ft | 466 kts | 148° |
| 2026-04-25 18:19 | 43.07991 | 19.13493 | 38020 ft | 465 kts | 148° |
| 2026-04-25 18:20 | 43.02513 | 19.18247 | 38020 ft | 465 kts | 148° |
| 2026-04-25 18:20 | 42.97048 | 19.22975 | 38015 ft | 465 kts | 148° |
| 2026-04-25 18:21 | 42.91617 | 19.27668 | 38021 ft | 465 kts | 148° |
| 2026-04-25 18:21 | 42.86156 | 19.32382 | 38021 ft | 465 kts | 148° |
| 2026-04-25 18:22 | 42.80678 | 19.37102 | 38019 ft | 464 kts | 148° |
| 2026-04-25 18:22 | 42.75211 | 19.41782 | 38023 ft | 464 kts | 148° |
| 2026-04-25 18:23 | 42.69740 | 19.46468 | 38024 ft | 463 kts | 148° |
| 2026-04-25 18:23 | 42.64286 | 19.51135 | 38019 ft | 463 kts | 148° |
| 2026-04-25 18:24 | 42.58859 | 19.55768 | 38015 ft | 463 kts | 148° |
| 2026-04-25 18:24 | 42.53287 | 19.60072 | 38016 ft | 462 kts | 158° |
| 2026-04-25 18:25 | 42.47119 | 19.62521 | 38014 ft | 461 kts | 166° |
| 2026-04-25 18:25 | 42.40889 | 19.64613 | 38011 ft | 461 kts | 166° |
| 2026-04-25 18:26 | 42.34665 | 19.66704 | 38016 ft | 461 kts | 166° |
| 2026-04-25 18:26 | 42.28442 | 19.68798 | 38019 ft | 460 kts | 166° |
| 2026-04-25 18:27 | 42.22228 | 19.70886 | 38021 ft | 460 kts | 166° |
| 2026-04-25 18:27 | 42.16003 | 19.72960 | 37782 ft | 460 kts | 166° |
| 2026-04-25 18:27 | 42.12932 | 19.73984 | 37506 ft | 460 kts | 166° |
| 2026-04-25 18:28 | 42.09824 | 19.75018 | 37229 ft | 461 kts | 166° |
| 2026-04-25 18:28 | 42.06793 | 19.76415 | 36960 ft | 459 kts | 152° |
| 2026-04-25 18:28 | 42.04197 | 19.78870 | 36689 ft | 457 kts | 134° |
| 2026-04-25 18:29 | 42.01185 | 19.86169 | 36196 ft | 449 kts | 98° |
| 2026-04-25 18:29 | 42.00980 | 19.90319 | 35942 ft | 445 kts | 82° |
| 2026-04-25 18:30 | 42.03280 | 20.02404 | 35192 ft | 446 kts | 72° |
| 2026-04-25 18:30 | 42.04120 | 20.06414 | 34940 ft | 446 kts | 72° |
| 2026-04-25 18:30 | 42.04961 | 20.10444 | 34708 ft | 448 kts | 72° |
| 2026-04-25 18:30 | 42.05802 | 20.14497 | 34478 ft | 449 kts | 72° |
| 2026-04-25 18:31 | 42.06637 | 20.18534 | 34022 ft | 448 kts | 72° |
| 2026-04-25 18:31 | 42.07461 | 20.22529 | 33043 ft | 451 kts | 72° |
| 2026-04-25 18:31 | 42.08300 | 20.26615 | 32054 ft | 453 kts | 73° |
| 2026-04-25 18:31 | 42.09139 | 20.30715 | 31011 ft | 456 kts | 73° |
| 2026-04-25 18:32 | 42.09983 | 20.34836 | 29975 ft | 458 kts | 73° |
| 2026-04-25 18:32 | 42.10833 | 20.38995 | 28723 ft | 461 kts | 73° |
| 2026-04-25 18:32 | 42.11685 | 20.43163 | 27533 ft | 462 kts | 73° |
| 2026-04-25 18:32 | 42.12587 | 20.47316 | 26698 ft | 457 kts | 69° |
| 2026-04-25 18:33 | 42.13804 | 20.51138 | 25933 ft | 449 kts | 60° |
| 2026-04-25 18:33 | 42.15410 | 20.54712 | 25185 ft | 443 kts | 55° |
| 2026-04-25 18:33 | 42.17089 | 20.58180 | 24432 ft | 440 kts | 55° |
| 2026-04-25 18:33 | 42.18747 | 20.61625 | 23695 ft | 437 kts | 55° |
| 2026-04-25 18:34 | 42.20390 | 20.65062 | 22893 ft | 433 kts | 56° |
| 2026-04-25 18:34 | 42.22005 | 20.68458 | 22206 ft | 428 kts | 56° |
| 2026-04-25 18:34 | 42.23603 | 20.71824 | 21528 ft | 423 kts | 56° |
| 2026-04-25 18:34 | 42.25117 | 20.75012 | 20907 ft | 419 kts | 56° |
| 2026-04-25 18:35 | 42.26686 | 20.78311 | 20273 ft | 415 kts | 56° |
| 2026-04-25 18:35 | 42.28239 | 20.81576 | 19674 ft | 411 kts | 56° |
| 2026-04-25 18:35 | 42.29784 | 20.84824 | 19087 ft | 407 kts | 56° |
| 2026-04-25 18:35 | 42.31307 | 20.88029 | 18517 ft | 404 kts | 56° |
| 2026-04-25 18:36 | 42.32809 | 20.91192 | 17939 ft | 401 kts | 56° |
| 2026-04-25 18:36 | 42.34291 | 20.94318 | 17404 ft | 396 kts | 56° |
| 2026-04-25 18:36 | 42.35760 | 20.97430 | 16871 ft | 391 kts | 56° |
| 2026-04-25 18:36 | 42.37217 | 21.00520 | 16344 ft | 387 kts | 56° |
| 2026-04-25 18:37 | 42.38653 | 21.03567 | 15807 ft | 383 kts | 56° |
| 2026-04-25 18:37 | 42.40081 | 21.06593 | 15339 ft | 379 kts | 56° |
| 2026-04-25 18:37 | 42.41471 | 21.09542 | 15209 ft | 364 kts | 56° |
| 2026-04-25 18:37 | 42.42805 | 21.12382 | 15086 ft | 350 kts | 56° |
| 2026-04-25 18:38 | 42.44088 | 21.15118 | 14968 ft | 338 kts | 56° |
| 2026-04-25 18:38 | 42.45310 | 21.17721 | 14850 ft | 327 kts | 56° |
| 2026-04-25 18:38 | 42.46442 | 21.20336 | 14701 ft | 318 kts | 65° |
| 2026-04-25 18:38 | 42.46885 | 21.23243 | 14504 ft | 316 kts | 90° |
| 2026-04-25 18:39 | 42.46425 | 21.26158 | 14206 ft | 321 kts | 112° |
| 2026-04-25 18:39 | 42.45063 | 21.28591 | 13628 ft | 330 kts | 141° |
| 2026-04-25 18:39 | 42.43241 | 21.30411 | 13355 ft | 324 kts | 143° |
| 2026-04-25 18:39 | 42.41445 | 21.32208 | 12719 ft | 319 kts | 143° |
| 2026-04-25 18:40 | 42.40121 | 21.33550 | 12214 ft | 316 kts | 143° |
| 2026-04-25 18:41 | 42.39752 | 21.33935 | 12083 ft | 314 kts | 141° |
| 2026-04-25 18:41 | 42.38007 | 21.35582 | 11781 ft | 298 kts | 156° |
| 2026-04-25 18:41 | 42.36073 | 21.36183 | 11350 ft | 286 kts | 183° |
| 2026-04-25 18:41 | 42.34180 | 21.35591 | 10883 ft | 278 kts | 209° |
| 2026-04-25 18:42 | 42.32684 | 21.34001 | 10409 ft | 276 kts | 234° |
| 2026-04-25 18:42 | 42.32290 | 21.33301 | 10332 ft | 273 kts | 236° |
| 2026-04-25 18:42 | 42.30432 | 21.29915 | 9577 ft | 268 kts | 235° |
| 2026-04-25 18:42 | 42.29468 | 21.27800 | 9023 ft | 261 kts | 251° |
| 2026-04-25 18:43 | 42.29153 | 21.25438 | 8566 ft | 255 kts | 274° |
| 2026-04-25 18:43 | 42.29531 | 21.23126 | 8174 ft | 254 kts | 295° |
| 2026-04-25 18:43 | 42.30511 | 21.21167 | 7801 ft | 252 kts | 312° |
| 2026-04-25 18:43 | 42.31679 | 21.19399 | 7422 ft | 252 kts | 312° |
| 2026-04-25 18:44 | 42.32840 | 21.17635 | 7040 ft | 251 kts | 311° |
| 2026-04-25 18:44 | 42.33997 | 21.15872 | 6663 ft | 251 kts | 311° |
| 2026-04-25 18:44 | 42.35147 | 21.14110 | 6274 ft | 250 kts | 311° |
| 2026-04-25 18:44 | 42.36295 | 21.12347 | 5888 ft | 249 kts | 312° |
| 2026-04-25 18:45 | 42.37051 | 21.11187 | 5631 ft | 249 kts | 311° |
| 2026-04-25 18:45 | 42.38577 | 21.08844 | 5138 ft | 247 kts | 312° |
| 2026-04-25 18:45 | 42.39683 | 21.07145 | 5058 ft | 233 kts | 312° |
| 2026-04-25 18:45 | 42.40451 | 21.06164 | 4994 ft | 225 kts | 325° |
| 2026-04-25 18:46 | 42.41814 | 21.05260 | 4847 ft | 216 kts | 345° |
| 2026-04-25 18:46 | 42.43309 | 21.05001 | 4510 ft | 217 kts | 356° |
| 2026-04-25 18:46 | 42.44807 | 21.04853 | 4261 ft | 214 kts | 356° |
| 2026-04-25 18:46 | 42.46278 | 21.04706 | 3981 ft | 209 kts | 356° |
| 2026-04-25 18:47 | 42.47713 | 21.04561 | 3650 ft | 205 kts | 356° |
| 2026-04-25 18:47 | 42.49114 | 21.04418 | 3346 ft | 198 kts | 356° |
| 2026-04-25 18:47 | 42.50447 | 21.04283 | 3041 ft | 185 kts | 356° |
| 2026-04-25 18:47 | 42.51674 | 21.04158 | 2789 ft | 168 kts | 356° |
| 2026-04-25 18:48 | 42.52785 | 21.04045 | 2527 ft | 153 kts | 355° |
| 2026-04-25 18:48 | 42.53814 | 21.03934 | 2270 ft | 143 kts | 355° |
| 2026-04-25 18:48 | 42.54783 | 21.03840 | 2071 ft | 138 kts | 354° |
| 2026-04-25 18:48 | 42.55729 | 21.03743 | 1851 ft | 136 kts | 354° |
| 2026-04-25 18:49 | 42.56602 | 21.03636 | 1780 ft | 113 kts | 356° |
| 2026-04-25 18:49 | 42.57081 | 21.03595 | 1788 ft | 26 kts | 356° |
| 2026-04-25 18:49 | 42.57233 | 21.03592 | 1790 ft | 22 kts | 358° |
| 2026-04-25 18:49 | 42.57394 | 21.03578 | 1788 ft | 24 kts | 355° |
| 2026-04-25 18:50 | 42.57561 | 21.03557 | 1788 ft | 25 kts | 354° |
| 2026-04-25 18:50 | 42.57746 | 21.03530 | 1784 ft | 28 kts | 347° |
| 2026-04-25 18:50 | 42.57917 | 21.03419 | 1786 ft | 28 kts | 324° |
| 2026-04-25 18:50 | 42.58012 | 21.03317 | 1790 ft | 13 kts | 290° |
| 2026-04-25 18:51 | 42.57944 | 21.03277 | 1788 ft | 13 kts | 176° |
| 2026-04-25 18:51 | 42.57882 | 21.03283 | 1786 ft | 13 kts | 175° |
| 2026-04-25 18:51 | 42.57770 | 21.03292 | 1787 ft | 11 kts | 186° |
| 2026-04-25 18:51 | 42.57724 | 21.03220 | 1787 ft | 11 kts | 237° |
| 2026-04-25 18:52 | 42.57660 | 21.03207 | 1787 ft | 9 kts | 176° |
| 2026-04-25 18:52 | 42.57602 | 21.03212 | 1786 ft | 8 kts | 176° |
| 2026-04-25 18:52 | 42.57568 | 21.03179 | 1786 ft | 6 kts | 252° |
| 2026-04-25 18:52 | 42.57566 | 21.03155 | 1787 ft | 2 kts | 267° |
| 2026-04-25 18:53 | 42.57566 | 21.03144 | 1787 ft | 1 kts | 265° |
| 2026-04-25 18:53 | 42.57565 | 21.03140 | 1787 ft | 2 kts | 265° |
| 2026-04-25 18:53 | 42.57564 | 21.03107 | 1787 ft | 3 kts | 266° |
| 2026-04-25 18:53 | 42.57563 | 21.03096 | 1787 ft | 0 kts | 266° |
| 2026-04-25 18:54 | 42.57563 | 21.03094 | 1787 ft | 0 kts | 266° |